sensor_id;sensor_type;location;lat;lon;timestamp;pressure;altitude;pressure_sealevel;temperature;humidity
56689;BME280;42565;53.342;-1.534;2023-02-03T00:01:58;99719.86;;;9.08;70.39
56689;BME280;42565;53.342;-1.534;2023-02-03T00:04:25;99711.47;;;9.48;70.59
56689;BME280;42565;53.342;-1.534;2023-02-03T00:06:51;99697.51;;;9.18;73.37
56689;BME280;42565;53.342;-1.534;2023-02-03T00:09:19;99694.11;;;9.15;73.55
56689;BME280;42565;53.342;-1.534;2023-02-03T00:11:47;99691.67;;;8.68;75.68
56689;BME280;42565;53.342;-1.534;2023-02-03T00:14:13;99688.69;;;8.68;75.90
56689;BME280;42565;53.342;-1.534;2023-02-03T00:16:41;99681.51;;;8.65;74.81
56689;BME280;42565;53.342;-1.534;2023-02-03T00:19:08;99687.62;;;8.51;75.90
56689;BME280;42565;53.342;-1.534;2023-02-03T00:21:34;99703.38;;;8.48;75.59
56689;BME280;42565;53.342;-1.534;2023-02-03T00:24:01;99693.08;;;8.06;76.73
56689;BME280;42565;53.342;-1.534;2023-02-03T00:26:29;99695.82;;;7.91;77.42
56689;BME280;42565;53.342;-1.534;2023-02-03T00:28:58;99685.69;;;8.66;75.17
56689;BME280;42565;53.342;-1.534;2023-02-03T00:31:25;99657.35;;;8.24;75.45
56689;BME280;42565;53.342;-1.534;2023-02-03T00:33:54;99675.36;;;8.51;74.56
56689;BME280;42565;53.342;-1.534;2023-02-03T00:36:21;99680.16;;;8.16;75.82
56689;BME280;42565;53.342;-1.534;2023-02-03T00:38:48;99684.29;;;8.25;76.43
56689;BME280;42565;53.342;-1.534;2023-02-03T00:41:16;99685.69;;;8.43;75.82
56689;BME280;42565;53.342;-1.534;2023-02-03T00:43:43;99703.61;;;8.00;77.81
56689;BME280;42565;53.342;-1.534;2023-02-03T00:46:10;99698.21;;;7.96;78.88
56689;BME280;42565;53.342;-1.534;2023-02-03T00:48:38;99705.03;;;7.93;80.09
56689;BME280;42565;53.342;-1.534;2023-02-03T00:51:06;99701.52;;;7.80;81.19
56689;BME280;42565;53.342;-1.534;2023-02-03T00:53:33;99701.15;;;8.19;80.09
56689;BME280;42565;53.342;-1.534;2023-02-03T00:56:00;99685.75;;;7.75;80.56
56689;BME280;42565;53.342;-1.534;2023-02-03T00:58:28;99715.16;;;8.06;80.58
56689;BME280;42565;53.342;-1.534;2023-02-03T01:00:55;99693.41;;;7.90;81.47
56689;BME280;42565;53.342;-1.534;2023-02-03T01:03:22;99696.66;;;8.07;80.61
56689;BME280;42565;53.342;-1.534;2023-02-03T01:05:50;99700.75;;;8.23;81.36
56689;BME280;42565;53.342;-1.534;2023-02-03T01:08:16;99694.56;;;7.91;83.06
56689;BME280;42565;53.342;-1.534;2023-02-03T01:10:43;99711.58;;;7.52;84.76
56689;BME280;42565;53.342;-1.534;2023-02-03T01:13:10;99697.55;;;7.63;84.77
56689;BME280;42565;53.342;-1.534;2023-02-03T01:15:41;99708.58;;;8.31;83.14
56689;BME280;42565;53.342;-1.534;2023-02-03T01:18:10;99699.08;;;7.55;85.59
56689;BME280;42565;53.342;-1.534;2023-02-03T01:20:37;99709.42;;;7.43;86.61
56689;BME280;42565;53.342;-1.534;2023-02-03T01:23:03;99721.46;;;7.49;85.96
56689;BME280;42565;53.342;-1.534;2023-02-03T01:25:30;99715.56;;;7.79;85.43
56689;BME280;42565;53.342;-1.534;2023-02-03T01:27:57;99713.87;;;7.35;87.29
56689;BME280;42565;53.342;-1.534;2023-02-03T01:30:24;99705.31;;;7.08;88.44
56689;BME280;42565;53.342;-1.534;2023-02-03T01:32:50;99710.56;;;7.98;86.51
56689;BME280;42565;53.342;-1.534;2023-02-03T01:35:17;99691.89;;;7.83;87.78
56689;BME280;42565;53.342;-1.534;2023-02-03T01:37:44;99723.42;;;7.61;89.20
56689;BME280;42565;53.342;-1.534;2023-02-03T01:40:12;99713.06;;;7.21;90.51
56689;BME280;42565;53.342;-1.534;2023-02-03T01:42:39;99725.46;;;7.46;88.72
56689;BME280;42565;53.342;-1.534;2023-02-03T01:45:07;99720.64;;;7.34;90.47
56689;BME280;42565;53.342;-1.534;2023-02-03T01:47:39;99712.48;;;7.08;91.03
56689;BME280;42565;53.342;-1.534;2023-02-03T01:50:12;99720.39;;;7.24;89.27
56689;BME280;42565;53.342;-1.534;2023-02-03T01:52:44;99701.70;;;7.09;89.82
56689;BME280;42565;53.342;-1.534;2023-02-03T01:55:18;99721.95;;;7.36;89.81
56689;BME280;42565;53.342;-1.534;2023-02-03T01:57:48;99719.99;;;7.48;88.48
56689;BME280;42565;53.342;-1.534;2023-02-03T02:00:18;99731.80;;;7.97;88.73
56689;BME280;42565;53.342;-1.534;2023-02-03T02:02:46;99733.24;;;7.81;87.12
56689;BME280;42565;53.342;-1.534;2023-02-03T02:05:21;99741.23;;;8.56;86.39
56689;BME280;42565;53.342;-1.534;2023-02-03T02:07:51;99738.38;;;7.68;87.10
56689;BME280;42565;53.342;-1.534;2023-02-03T02:10:19;99748.08;;;7.98;87.03
56689;BME280;42565;53.342;-1.534;2023-02-03T02:12:46;99745.72;;;7.98;86.13
56689;BME280;42565;53.342;-1.534;2023-02-03T02:15:14;99739.61;;;8.09;85.77
56689;BME280;42565;53.342;-1.534;2023-02-03T02:17:59;99754.20;;;7.73;87.41
56689;BME280;42565;53.342;-1.534;2023-02-03T02:20:37;99743.34;;;8.22;86.36
56689;BME280;42565;53.342;-1.534;2023-02-03T02:23:33;99728.65;;;7.88;88.67
56689;BME280;42565;53.342;-1.534;2023-02-03T02:26:22;99738.13;;;7.72;88.43
56689;BME280;42565;53.342;-1.534;2023-02-03T02:29:09;99726.95;;;8.27;87.06
56689;BME280;42565;53.342;-1.534;2023-02-03T02:31:52;99722.63;;;7.70;90.32
56689;BME280;42565;53.342;-1.534;2023-02-03T02:34:32;99721.19;;;7.26;93.30
56689;BME280;42565;53.342;-1.534;2023-02-03T02:37:08;99726.18;;;7.05;94.30
56689;BME280;42565;53.342;-1.534;2023-02-03T02:39:45;99718.61;;;7.16;94.28
56689;BME280;42565;53.342;-1.534;2023-02-03T02:42:23;99729.27;;;7.40;92.97
56689;BME280;42565;53.342;-1.534;2023-02-03T02:44:57;99731.94;;;7.73;90.49
56689;BME280;42565;53.342;-1.534;2023-02-03T02:47:25;99721.81;;;7.16;92.56
56689;BME280;42565;53.342;-1.534;2023-02-03T02:49:58;99709.01;;;7.31;92.52
56689;BME280;42565;53.342;-1.534;2023-02-03T02:52:29;99695.50;;;7.69;90.40
56689;BME280;42565;53.342;-1.534;2023-02-03T02:55:02;99692.38;;;7.52;89.81
56689;BME280;42565;53.342;-1.534;2023-02-03T02:57:33;99686.78;;;7.57;89.72
56689;BME280;42565;53.342;-1.534;2023-02-03T03:00:04;99683.42;;;7.29;89.78
56689;BME280;42565;53.342;-1.534;2023-02-03T03:02:32;99693.26;;;7.66;88.85
56689;BME280;42565;53.342;-1.534;2023-02-03T03:05:00;99698.25;;;7.81;88.91
56689;BME280;42565;53.342;-1.534;2023-02-03T03:07:29;99687.80;;;8.08;87.13
56689;BME280;42565;53.342;-1.534;2023-02-03T03:10:03;99692.70;;;8.05;87.33
56689;BME280;42565;53.342;-1.534;2023-02-03T03:12:34;99692.67;;;7.81;89.18
56689;BME280;42565;53.342;-1.534;2023-02-03T03:15:06;99693.10;;;8.23;86.48
56689;BME280;42565;53.342;-1.534;2023-02-03T03:17:38;99699.70;;;8.42;86.50
56689;BME280;42565;53.342;-1.534;2023-02-03T03:20:08;99711.77;;;8.17;87.22
56689;BME280;42565;53.342;-1.534;2023-02-03T03:22:43;99712.16;;;8.30;87.55
56689;BME280;42565;53.342;-1.534;2023-02-03T03:25:15;99717.96;;;7.90;88.88
56689;BME280;42565;53.342;-1.534;2023-02-03T03:27:48;99729.48;;;7.93;88.37
56689;BME280;42565;53.342;-1.534;2023-02-03T03:30:19;99729.10;;;8.07;89.07
56689;BME280;42565;53.342;-1.534;2023-02-03T03:32:48;99740.64;;;8.07;88.73
56689;BME280;42565;53.342;-1.534;2023-02-03T03:35:16;99736.73;;;7.58;91.00
56689;BME280;42565;53.342;-1.534;2023-02-03T03:37:46;99736.94;;;8.32;88.96
56689;BME280;42565;53.342;-1.534;2023-02-03T03:40:23;99735.98;;;8.59;87.60
56689;BME280;42565;53.342;-1.534;2023-02-03T03:42:57;99742.63;;;7.91;89.41
56689;BME280;42565;53.342;-1.534;2023-02-03T03:45:27;99739.90;;;7.43;92.53
56689;BME280;42565;53.342;-1.534;2023-02-03T03:48:02;99747.08;;;7.83;91.20
56689;BME280;42565;53.342;-1.534;2023-02-03T03:50:36;99745.32;;;7.40;92.23
56689;BME280;42565;53.342;-1.534;2023-02-03T03:53:06;99748.12;;;7.50;92.70
56689;BME280;42565;53.342;-1.534;2023-02-03T03:55:35;99760.69;;;7.14;94.19
56689;BME280;42565;53.342;-1.534;2023-02-03T03:58:05;99744.76;;;7.29;95.43
56689;BME280;42565;53.342;-1.534;2023-02-03T04:00:36;99749.59;;;7.08;94.87
56689;BME280;42565;53.342;-1.534;2023-02-03T04:03:10;99757.71;;;7.42;93.84
56689;BME280;42565;53.342;-1.534;2023-02-03T04:05:40;99765.47;;;7.06;94.85
56689;BME280;42565;53.342;-1.534;2023-02-03T04:08:08;99772.06;;;7.48;95.62
56689;BME280;42565;53.342;-1.534;2023-02-03T04:10:36;99774.70;;;7.83;93.75
56689;BME280;42565;53.342;-1.534;2023-02-03T04:13:05;99775.22;;;8.13;91.40
56689;BME280;42565;53.342;-1.534;2023-02-03T04:15:33;99777.72;;;8.15;91.89
56689;BME280;42565;53.342;-1.534;2023-02-03T04:18:01;99792.87;;;7.18;94.41
56689;BME280;42565;53.342;-1.534;2023-02-03T04:20:29;99792.15;;;7.12;97.57
56689;BME280;42565;53.342;-1.534;2023-02-03T04:22:57;99804.02;;;6.97;98.73
56689;BME280;42565;53.342;-1.534;2023-02-03T04:25:24;99807.79;;;7.19;97.62
56689;BME280;42565;53.342;-1.534;2023-02-03T04:27:52;99810.39;;;7.01;97.79
56689;BME280;42565;53.342;-1.534;2023-02-03T04:30:20;99811.25;;;7.28;97.06
56689;BME280;42565;53.342;-1.534;2023-02-03T04:32:48;99814.19;;;7.27;96.22
56689;BME280;42565;53.342;-1.534;2023-02-03T04:35:15;99825.69;;;7.59;93.94
56689;BME280;42565;53.342;-1.534;2023-02-03T04:37:42;99821.85;;;7.24;95.76
56689;BME280;42565;53.342;-1.534;2023-02-03T04:40:10;99831.10;;;7.85;93.95
56689;BME280;42565;53.342;-1.534;2023-02-03T04:42:38;99834.56;;;8.03;92.67
56689;BME280;42565;53.342;-1.534;2023-02-03T04:45:07;99842.94;;;8.23;92.22
56689;BME280;42565;53.342;-1.534;2023-02-03T04:47:36;99849.17;;;8.36;91.51
56689;BME280;42565;53.342;-1.534;2023-02-03T04:50:03;99860.77;;;7.72;93.78
56689;BME280;42565;53.342;-1.534;2023-02-03T04:52:30;99860.92;;;7.92;93.17
56689;BME280;42565;53.342;-1.534;2023-02-03T04:54:57;99870.68;;;8.26;91.54
56689;BME280;42565;53.342;-1.534;2023-02-03T04:57:24;99860.59;;;7.76;93.51
56689;BME280;42565;53.342;-1.534;2023-02-03T04:59:51;99849.86;;;8.18;92.84
56689;BME280;42565;53.342;-1.534;2023-02-03T05:02:18;99846.96;;;8.24;92.07
56689;BME280;42565;53.342;-1.534;2023-02-03T05:04:45;99856.48;;;8.28;91.69
56689;BME280;42565;53.342;-1.534;2023-02-03T05:07:12;99854.78;;;8.36;91.48
56689;BME280;42565;53.342;-1.534;2023-02-03T05:09:39;99862.53;;;8.14;90.21
56689;BME280;42565;53.342;-1.534;2023-02-03T05:12:06;99873.30;;;8.44;89.82
56689;BME280;42565;53.342;-1.534;2023-02-03T05:14:34;99874.45;;;8.46;89.96
56689;BME280;42565;53.342;-1.534;2023-02-03T05:17:00;99877.25;;;8.31;90.48
56689;BME280;42565;53.342;-1.534;2023-02-03T05:19:28;99888.49;;;8.28;90.36
56689;BME280;42565;53.342;-1.534;2023-02-03T05:21:54;99898.93;;;8.40;88.92
56689;BME280;42565;53.342;-1.534;2023-02-03T05:24:21;99905.10;;;8.65;89.06
56689;BME280;42565;53.342;-1.534;2023-02-03T05:26:48;99902.90;;;8.95;87.42
56689;BME280;42565;53.342;-1.534;2023-02-03T05:29:15;99908.16;;;8.86;88.04
56689;BME280;42565;53.342;-1.534;2023-02-03T05:31:42;99910.07;;;9.00;86.96
56689;BME280;42565;53.342;-1.534;2023-02-03T05:34:14;99904.21;;;9.03;86.61
56689;BME280;42565;53.342;-1.534;2023-02-03T05:36:41;99893.00;;;8.12;88.97
56689;BME280;42565;53.342;-1.534;2023-02-03T05:39:08;99884.08;;;8.47;88.69
56689;BME280;42565;53.342;-1.534;2023-02-03T05:41:35;99883.46;;;8.72;87.27
56689;BME280;42565;53.342;-1.534;2023-02-03T05:44:03;99885.46;;;8.36;90.25
56689;BME280;42565;53.342;-1.534;2023-02-03T05:46:30;99880.22;;;8.38;90.46
56689;BME280;42565;53.342;-1.534;2023-02-03T05:48:57;99889.79;;;8.62;89.41
56689;BME280;42565;53.342;-1.534;2023-02-03T05:51:24;99890.37;;;8.53;88.45
56689;BME280;42565;53.342;-1.534;2023-02-03T05:53:51;99891.79;;;8.11;89.91
56689;BME280;42565;53.342;-1.534;2023-02-03T05:56:18;99894.06;;;8.46;90.02
56689;BME280;42565;53.342;-1.534;2023-02-03T05:58:45;99890.32;;;8.65;89.29
56689;BME280;42565;53.342;-1.534;2023-02-03T06:01:12;99898.95;;;8.90;87.54
56689;BME280;42565;53.342;-1.534;2023-02-03T06:03:39;99902.62;;;8.79;87.73
56689;BME280;42565;53.342;-1.534;2023-02-03T06:06:06;99892.63;;;7.98;89.85
56689;BME280;42565;53.342;-1.534;2023-02-03T06:08:34;99894.97;;;8.41;90.16
56689;BME280;42565;53.342;-1.534;2023-02-03T06:11:01;99891.11;;;7.92;92.46
56689;BME280;42565;53.342;-1.534;2023-02-03T06:13:28;99893.04;;;7.82;93.59
56689;BME280;42565;53.342;-1.534;2023-02-03T06:15:55;99890.44;;;8.30;92.84
56689;BME280;42565;53.342;-1.534;2023-02-03T06:18:23;99893.71;;;8.28;92.05
56689;BME280;42565;53.342;-1.534;2023-02-03T06:20:50;99900.77;;;8.62;90.73
56689;BME280;42565;53.342;-1.534;2023-02-03T06:23:18;99896.16;;;8.41;90.06
56689;BME280;42565;53.342;-1.534;2023-02-03T06:25:46;99898.87;;;7.70;94.21
56689;BME280;42565;53.342;-1.534;2023-02-03T06:28:14;99903.86;;;8.13;92.87
56689;BME280;42565;53.342;-1.534;2023-02-03T06:30:42;99897.64;;;8.28;92.46
56689;BME280;42565;53.342;-1.534;2023-02-03T06:33:09;99909.89;;;8.60;91.82
56689;BME280;42565;53.342;-1.534;2023-02-03T06:35:36;99899.91;;;8.43;92.01
56689;BME280;42565;53.342;-1.534;2023-02-03T06:38:03;99894.71;;;8.66;90.47
56689;BME280;42565;53.342;-1.534;2023-02-03T06:40:30;99896.92;;;8.32;91.46
56689;BME280;42565;53.342;-1.534;2023-02-03T06:42:57;99900.36;;;8.26;91.41
56689;BME280;42565;53.342;-1.534;2023-02-03T06:45:25;99901.55;;;8.24;92.13
56689;BME280;42565;53.342;-1.534;2023-02-03T06:47:52;99917.97;;;7.63;96.25
56689;BME280;42565;53.342;-1.534;2023-02-03T06:50:19;99917.85;;;7.71;96.09
56689;BME280;42565;53.342;-1.534;2023-02-03T06:52:48;99921.57;;;8.15;93.63
56689;BME280;42565;53.342;-1.534;2023-02-03T06:55:15;99922.04;;;8.08;93.36
56689;BME280;42565;53.342;-1.534;2023-02-03T06:57:43;99925.21;;;8.12;93.09
56689;BME280;42565;53.342;-1.534;2023-02-03T07:00:12;99920.76;;;7.94;94.13
56689;BME280;42565;53.342;-1.534;2023-02-03T07:02:40;99922.47;;;7.69;94.10
56689;BME280;42565;53.342;-1.534;2023-02-03T07:05:07;99936.01;;;7.70;95.44
56689;BME280;42565;53.342;-1.534;2023-02-03T07:07:34;99931.24;;;8.10;95.92
56689;BME280;42565;53.342;-1.534;2023-02-03T07:10:02;99930.63;;;7.64;97.35
56689;BME280;42565;53.342;-1.534;2023-02-03T07:12:30;99927.84;;;7.40;97.27
56689;BME280;42565;53.342;-1.534;2023-02-03T07:14:57;99928.00;;;7.65;96.51
56689;BME280;42565;53.342;-1.534;2023-02-03T07:17:25;99933.71;;;7.09;98.29
56689;BME280;42565;53.342;-1.534;2023-02-03T07:19:52;99941.47;;;7.34;100.00
56689;BME280;42565;53.342;-1.534;2023-02-03T07:22:19;99943.33;;;7.43;99.15
56689;BME280;42565;53.342;-1.534;2023-02-03T07:24:46;99940.70;;;7.61;97.43
56689;BME280;42565;53.342;-1.534;2023-02-03T07:27:13;99935.01;;;7.26;99.21
56689;BME280;42565;53.342;-1.534;2023-02-03T07:29:41;99930.93;;;7.37;99.88
56689;BME280;42565;53.342;-1.534;2023-02-03T07:32:08;99930.32;;;7.74;97.13
56689;BME280;42565;53.342;-1.534;2023-02-03T07:34:34;99929.58;;;7.66;97.67
56689;BME280;42565;53.342;-1.534;2023-02-03T07:37:02;99927.63;;;7.75;99.30
56689;BME280;42565;53.342;-1.534;2023-02-03T07:39:29;99930.76;;;7.01;100.00
56689;BME280;42565;53.342;-1.534;2023-02-03T07:41:56;99915.73;;;7.72;98.71
56689;BME280;42565;53.342;-1.534;2023-02-03T07:44:23;99909.11;;;7.73;98.46
56689;BME280;42565;53.342;-1.534;2023-02-03T07:46:49;99910.81;;;7.78;99.04
56689;BME280;42565;53.342;-1.534;2023-02-03T07:49:16;99917.44;;;7.36;98.73
56689;BME280;42565;53.342;-1.534;2023-02-03T07:51:43;99934.43;;;7.41;99.75
56689;BME280;42565;53.342;-1.534;2023-02-03T07:54:10;99927.39;;;7.26;99.98
56689;BME280;42565;53.342;-1.534;2023-02-03T07:56:37;99937.66;;;7.90;97.70
56689;BME280;42565;53.342;-1.534;2023-02-03T07:59:03;99949.05;;;7.75;99.84
56689;BME280;42565;53.342;-1.534;2023-02-03T08:01:30;99973.51;;;7.28;100.00
56689;BME280;42565;53.342;-1.534;2023-02-03T08:03:58;99985.19;;;7.66;99.38
56689;BME280;42565;53.342;-1.534;2023-02-03T08:06:24;99989.67;;;7.29;100.00
56689;BME280;42565;53.342;-1.534;2023-02-03T08:08:52;100011.50;;;7.47;98.97
56689;BME280;42565;53.342;-1.534;2023-02-03T08:11:19;100021.68;;;7.54;98.53
56689;BME280;42565;53.342;-1.534;2023-02-03T08:13:45;100031.25;;;7.78;97.90
56689;BME280;42565;53.342;-1.534;2023-02-03T08:16:13;100020.02;;;7.91;96.76
56689;BME280;42565;53.342;-1.534;2023-02-03T08:18:40;100052.94;;;7.78;97.91
56689;BME280;42565;53.342;-1.534;2023-02-03T08:21:07;100061.29;;;8.54;93.95
56689;BME280;42565;53.342;-1.534;2023-02-03T08:23:34;100057.94;;;8.44;92.93
56689;BME280;42565;53.342;-1.534;2023-02-03T08:26:02;100063.90;;;8.68;92.08
56689;BME280;42565;53.342;-1.534;2023-02-03T08:28:29;100079.25;;;8.89;92.50
56689;BME280;42565;53.342;-1.534;2023-02-03T08:30:56;100084.17;;;8.62;92.54
56689;BME280;42565;53.342;-1.534;2023-02-03T08:33:24;100094.30;;;8.76;91.23
56689;BME280;42565;53.342;-1.534;2023-02-03T08:35:51;100090.88;;;9.01;89.47
56689;BME280;42565;53.342;-1.534;2023-02-03T08:38:18;100110.25;;;8.95;89.97
56689;BME280;42565;53.342;-1.534;2023-02-03T08:40:45;100103.65;;;8.39;91.50
56689;BME280;42565;53.342;-1.534;2023-02-03T08:43:11;100110.50;;;8.42;92.67
56689;BME280;42565;53.342;-1.534;2023-02-03T08:45:38;100112.09;;;8.40;93.66
56689;BME280;42565;53.342;-1.534;2023-02-03T08:48:06;100107.46;;;8.59;92.08
56689;BME280;42565;53.342;-1.534;2023-02-03T08:50:33;100114.78;;;8.52;93.74
56689;BME280;42565;53.342;-1.534;2023-02-03T08:53:00;100111.47;;;8.65;93.42
56689;BME280;42565;53.342;-1.534;2023-02-03T08:55:27;100119.75;;;8.42;92.84
56689;BME280;42565;53.342;-1.534;2023-02-03T08:57:54;100121.29;;;8.65;91.06
56689;BME280;42565;53.342;-1.534;2023-02-03T09:00:21;100134.56;;;8.96;89.89
56689;BME280;42565;53.342;-1.534;2023-02-03T09:02:49;100135.92;;;9.41;88.07
56689;BME280;42565;53.342;-1.534;2023-02-03T09:05:16;100137.73;;;9.44;87.99
56689;BME280;42565;53.342;-1.534;2023-02-03T09:07:44;100154.64;;;9.06;89.33
56689;BME280;42565;53.342;-1.534;2023-02-03T09:10:11;100162.25;;;9.14;89.10
56689;BME280;42565;53.342;-1.534;2023-02-03T09:12:39;100160.24;;;9.72;86.88
56689;BME280;42565;53.342;-1.534;2023-02-03T09:15:06;100158.30;;;9.96;86.19
56689;BME280;42565;53.342;-1.534;2023-02-03T09:17:34;100159.18;;;9.14;88.59
56689;BME280;42565;53.342;-1.534;2023-02-03T09:20:01;100158.57;;;9.02;89.54
56689;BME280;42565;53.342;-1.534;2023-02-03T09:22:28;100157.01;;;9.24;89.03
56689;BME280;42565;53.342;-1.534;2023-02-03T09:24:55;100163.00;;;9.18;88.97
56689;BME280;42565;53.342;-1.534;2023-02-03T09:27:22;100164.94;;;8.86;91.12
56689;BME280;42565;53.342;-1.534;2023-02-03T09:29:49;100167.49;;;9.11;89.48
56689;BME280;42565;53.342;-1.534;2023-02-03T09:32:16;100169.34;;;9.63;88.06
56689;BME280;42565;53.342;-1.534;2023-02-03T09:34:43;100181.78;;;9.24;88.45
56689;BME280;42565;53.342;-1.534;2023-02-03T09:37:10;100187.57;;;9.52;86.89
56689;BME280;42565;53.342;-1.534;2023-02-03T09:39:37;100188.02;;;9.57;86.96
56689;BME280;42565;53.342;-1.534;2023-02-03T09:42:22;100186.48;;;9.28;88.60
56689;BME280;42565;53.342;-1.534;2023-02-03T09:45:01;100205.00;;;9.21;89.63
56689;BME280;42565;53.342;-1.534;2023-02-03T09:47:35;100213.94;;;10.06;87.20
56689;BME280;42565;53.342;-1.534;2023-02-03T09:50:05;100215.08;;;9.55;86.42
56689;BME280;42565;53.342;-1.534;2023-02-03T09:52:36;100221.91;;;9.90;85.15
56689;BME280;42565;53.342;-1.534;2023-02-03T09:55:10;100223.96;;;10.03;85.54
56689;BME280;42565;53.342;-1.534;2023-02-03T09:57:43;100230.50;;;10.03;84.80
56689;BME280;42565;53.342;-1.534;2023-02-03T10:00:19;100238.37;;;10.05;84.97
56689;BME280;42565;53.342;-1.534;2023-02-03T10:02:54;100241.05;;;10.01;86.78
56689;BME280;42565;53.342;-1.534;2023-02-03T10:05:29;100247.14;;;10.15;86.35
56689;BME280;42565;53.342;-1.534;2023-02-03T10:08:09;100248.87;;;9.99;86.73
56689;BME280;42565;53.342;-1.534;2023-02-03T10:10:40;100253.17;;;10.50;85.41
56689;BME280;42565;53.342;-1.534;2023-02-03T10:13:15;100256.52;;;10.15;87.08
56689;BME280;42565;53.342;-1.534;2023-02-03T10:16:00;100255.41;;;10.09;87.15
56689;BME280;42565;53.342;-1.534;2023-02-03T10:18:32;100257.40;;;9.76;86.72
56689;BME280;42565;53.342;-1.534;2023-02-03T10:21:09;100261.19;;;10.09;84.42
56689;BME280;42565;53.342;-1.534;2023-02-03T10:23:39;100267.32;;;10.15;84.90
56689;BME280;42565;53.342;-1.534;2023-02-03T10:26:09;100269.09;;;10.07;86.15
56689;BME280;42565;53.342;-1.534;2023-02-03T10:28:47;100271.38;;;10.03;86.51
56689;BME280;42565;53.342;-1.534;2023-02-03T10:31:19;100271.99;;;10.20;84.64
56689;BME280;42565;53.342;-1.534;2023-02-03T10:33:47;100273.85;;;10.27;84.95
56689;BME280;42565;53.342;-1.534;2023-02-03T10:36:19;100286.16;;;10.31;83.52
56689;BME280;42565;53.342;-1.534;2023-02-03T10:38:54;100289.75;;;10.32;84.04
56689;BME280;42565;53.342;-1.534;2023-02-03T10:41:24;100293.97;;;9.72;84.35
56689;BME280;42565;53.342;-1.534;2023-02-03T10:43:53;100300.79;;;9.85;86.01
56689;BME280;42565;53.342;-1.534;2023-02-03T10:46:27;100308.95;;;9.92;87.73
56689;BME280;42565;53.342;-1.534;2023-02-03T10:48:57;100312.80;;;10.48;84.58
56689;BME280;42565;53.342;-1.534;2023-02-03T10:51:26;100316.26;;;10.30;84.21
56689;BME280;42565;53.342;-1.534;2023-02-03T10:53:53;100318.87;;;10.74;82.88
56689;BME280;42565;53.342;-1.534;2023-02-03T10:56:22;100316.36;;;10.80;82.19
56689;BME280;42565;53.342;-1.534;2023-02-03T10:58:53;100316.57;;;11.19;80.74
56689;BME280;42565;53.342;-1.534;2023-02-03T11:01:23;100314.49;;;10.89;81.55
56689;BME280;42565;53.342;-1.534;2023-02-03T11:03:57;100311.64;;;10.53;82.13
56689;BME280;42565;53.342;-1.534;2023-02-03T11:06:24;100310.86;;;10.57;82.54
56689;BME280;42565;53.342;-1.534;2023-02-03T11:08:52;100308.43;;;10.21;84.40
56689;BME280;42565;53.342;-1.534;2023-02-03T11:11:22;100302.92;;;10.42;83.80
56689;BME280;42565;53.342;-1.534;2023-02-03T11:13:52;100307.53;;;10.41;83.77
56689;BME280;42565;53.342;-1.534;2023-02-03T11:16:19;100311.68;;;11.01;81.51
56689;BME280;42565;53.342;-1.534;2023-02-03T11:18:52;100308.21;;;10.88;81.34
56689;BME280;42565;53.342;-1.534;2023-02-03T11:21:21;100316.78;;;10.51;80.52
56689;BME280;42565;53.342;-1.534;2023-02-03T11:23:54;100312.49;;;10.39;82.69
56689;BME280;42565;53.342;-1.534;2023-02-03T11:26:24;100322.84;;;10.28;83.17
56689;BME280;42565;53.342;-1.534;2023-02-03T11:28:54;100331.71;;;10.25;83.42
56689;BME280;42565;53.342;-1.534;2023-02-03T11:31:24;100349.49;;;11.07;80.05
56689;BME280;42565;53.342;-1.534;2023-02-03T11:33:55;100347.41;;;10.67;80.84
56689;BME280;42565;53.342;-1.534;2023-02-03T11:36:26;100348.57;;;10.47;79.88
56689;BME280;42565;53.342;-1.534;2023-02-03T11:39:09;100342.51;;;10.84;78.79
56689;BME280;42565;53.342;-1.534;2023-02-03T11:41:38;100346.07;;;10.99;78.84
56689;BME280;42565;53.342;-1.534;2023-02-03T11:44:11;100334.72;;;11.34;77.94
56689;BME280;42565;53.342;-1.534;2023-02-03T11:46:39;100331.77;;;11.94;75.91
56689;BME280;42565;53.342;-1.534;2023-02-03T11:49:18;100326.28;;;11.33;77.37
56689;BME280;42565;53.342;-1.534;2023-02-03T11:51:56;100326.33;;;11.63;77.04
56689;BME280;42565;53.342;-1.534;2023-02-03T11:54:32;100319.50;;;11.71;76.24
56689;BME280;42565;53.342;-1.534;2023-02-03T11:57:20;100328.24;;;12.02;75.41
56689;BME280;42565;53.342;-1.534;2023-02-03T12:00:02;100327.94;;;12.47;74.57
56689;BME280;42565;53.342;-1.534;2023-02-03T12:02:56;100333.14;;;11.85;75.42
56689;BME280;42565;53.342;-1.534;2023-02-03T12:05:39;100337.92;;;11.76;76.56
56689;BME280;42565;53.342;-1.534;2023-02-03T12:08:20;100341.76;;;12.62;74.17
56689;BME280;42565;53.342;-1.534;2023-02-03T12:11:02;100339.80;;;11.83;75.25
56689;BME280;42565;53.342;-1.534;2023-02-03T12:13:45;100344.67;;;11.99;75.40
56689;BME280;42565;53.342;-1.534;2023-02-03T12:16:26;100342.68;;;11.46;75.99
56689;BME280;42565;53.342;-1.534;2023-02-03T12:19:07;100337.17;;;11.13;76.99
56689;BME280;42565;53.342;-1.534;2023-02-03T12:21:43;100343.24;;;11.02;78.88
56689;BME280;42565;53.342;-1.534;2023-02-03T12:24:27;100338.21;;;11.22;78.67
56689;BME280;42565;53.342;-1.534;2023-02-03T12:27:05;100332.66;;;11.02;78.24
56689;BME280;42565;53.342;-1.534;2023-02-03T12:29:40;100331.11;;;11.25;77.46
56689;BME280;42565;53.342;-1.534;2023-02-03T12:32:16;100340.60;;;11.57;77.44
56689;BME280;42565;53.342;-1.534;2023-02-03T12:34:49;100330.20;;;11.39;78.08
56689;BME280;42565;53.342;-1.534;2023-02-03T12:37:23;100328.44;;;11.19;77.62
56689;BME280;42565;53.342;-1.534;2023-02-03T12:39:54;100333.25;;;11.57;76.79
56689;BME280;42565;53.342;-1.534;2023-02-03T12:42:28;100342.61;;;11.94;76.12
56689;BME280;42565;53.342;-1.534;2023-02-03T12:45:00;100347.73;;;10.65;79.34
56689;BME280;42565;53.342;-1.534;2023-02-03T12:47:33;100355.10;;;10.61;79.65
56689;BME280;42565;53.342;-1.534;2023-02-03T12:50:05;100357.56;;;11.06;78.30
56689;BME280;42565;53.342;-1.534;2023-02-03T12:52:38;100364.40;;;10.92;78.47
56689;BME280;42565;53.342;-1.534;2023-02-03T12:55:19;100367.89;;;11.03;78.67
56689;BME280;42565;53.342;-1.534;2023-02-03T12:58:01;100369.29;;;11.35;78.21
56689;BME280;42565;53.342;-1.534;2023-02-03T13:00:37;100371.87;;;11.68;76.46
56689;BME280;42565;53.342;-1.534;2023-02-03T13:03:14;100370.55;;;11.36;77.54
56689;BME280;42565;53.342;-1.534;2023-02-03T13:05:48;100377.23;;;11.76;76.44
56689;BME280;42565;53.342;-1.534;2023-02-03T13:08:24;100374.18;;;11.43;77.64